Etusivu
METAR-TAF:

METAR-TAF

Lentoasemat :

Bastia, Ranska

Leveyspiiri: 42-33N, Pituuspiiri: 009-29E, korkeus merenpinnasta: 8 m

Tämänhetkinen sää

Tämä raportti tehtiin 36 minuuttia sitten, kello 15.00 UTC
Tuuli 8 kn pohjoisesta
Lämpötila 16°C
Kosteus 45%
Ilmanpaine 1026 hPa
Näkyvyys 10 km tai enemmän
ei pilviä alle 1500 m:ssä eikä cumulonimbus-pilviä

METAR: LFKB 211500Z AUTO 35008KT CAVOK 16/04 Q1026 NOSIG

Aika: 16:36 (15:36 UTC)

Sääennuste

Tämä raportti tehtiin 1 tunti ja 36 minuuttia sitten, kello 14.00 UTC
Ennuste voimassa 21. päivästä klo 15 UTC - 22. päivään klo 15 UTC
Tuuli 10 kn pohjoisen/luoteesta
Näkyvyys 10 km tai enemmän
ei pilviä alle 1500 m:ssä eikä cumulonimbus-pilviä
Tulossa
21. päivästä klo 19 UTC - 21. päivään klo 21 UTC
Tuuli 5 kn lännestä/luoteesta
Tulossa
22. päivästä klo 08 UTC - 22. päivään klo 10 UTC
Tuuli 6 kn koillisesta

TAF: LFKB 211400Z 2115/2215 34010KT CAVOK TX19/2213Z TN09/2204Z BECMG 2119/2121 30005KT BECMG 2208/2210 04006KT

Säähavainnot ja -ennusteet yli 4000 lentoasemalta (METAR- ja TAF-raportit).

Käytössä olevat sääasemat on merkitty karttaan keltaisilla ja punaisilla pisteillä.

Aseta hiiri pisteen päälle nähdäksesi sääaseman nimen.

Klikkaa sitten nähdäksesi säähavainnot ja -ennusteet.

Kartan vaihtaminen: klikkaa mustalla rastilla varustettuja vihreitä pisteitä, niin voit zoomata sisään; viivalla varustettua vihreää pistettä, niin voit zoomata ulos tai vihreitä nuolia, niin pääset viereisille kartoille.


METAR-TAF: